Flight Track Log - Related Links

Times and Time Zones

All times are in EDT time to prevent confusion due to time zone crossing. See the ACA831 flight status page for this flight to view local times or setup timezone preferences in your user account.

Time Position Orientation Groundspeed Altitude Reporting Facility
EDT Latitude Longitude Course Direction KTS MPH feet Rate Location/Type
Thu 06:12:15 AM 46.2230 6.1030 34° Northeast 5 6  Level FlightAware ADS-B
Thu 06:14:50 AM 46.2230 6.1040 90° East 6 7 200 Level FlightAware ADS-B
Thu 06:15:30 AM 46.2240 6.1050 35° Northeast 5 6 244 Level FlightAware ADS-B
Thu 06:16:10 AM 46.2250 6.1080 64° Northeast 17 20 258 Level FlightAware ADS-B
Thu 06:16:40 AM 46.2270 6.1100 35° Northeast 21 24 274 Level FlightAware ADS-B
Thu 06:17:10 AM 46.2290 6.1140 54° Northeast 26 30 288 Level FlightAware ADS-B
Thu 06:17:35 AM 46.2310 6.1170 46° Northeast 25 29 303 Level FlightAware ADS-B
Thu 06:18:05 AM 46.2330 6.1200 46° Northeast 22 25 317 Level FlightAware ADS-B
Thu 06:18:30 AM 46.2340 6.1230 64° Northeast 15 17 335 Level FlightAware ADS-B
Thu 06:19:00 AM 46.2360 6.1250 35° Northeast 12 14 352 Level FlightAware ADS-B
Thu 06:19:25 AM 46.2360 6.1260 90° East 13 15 375 Level FlightAware ADS-B
Thu 06:19:45 AM 46.2380 6.1280 35° Northeast 17 20 396 Level FlightAware ADS-B
Thu 06:20:10 AM 46.2390 6.1290 35° Northeast 9 10 415 Level FlightAware ADS-B
Thu 06:21:04 AM 46.2390 6.1300 90° East 442 Level FlightAware ADS-B
Thu 06:21:59 AM 46.2390 6.1290 270° West 2 2 512 Level FlightAware ADS-B
Thu 06:22:24 AM 46.2380 6.1290 180° South 2 2 611 Level FlightAware ADS-B
Thu 06:24:50 AM 46.2380 6.1280 270° West 10 12 669 Level FlightAware ADS-B
Thu 06:25:15 AM 46.2380 6.1270 270° West 4 5 1,526 Level FlightAware ADS-B
Thu 06:26:28 AM 46.2320 6.1200 219° Southwest 125 144 1,955 Level FlightAware ADS-B
Thu 06:26:44 AM 46.2050 6.0810 225° Southwest 174 200 2,900 5,217 Climbing FlightAware ADS-B
Thu 06:27:14 AM 46.1870 6.0540 226° Southwest 188 216 4,000 2,280 Climbing FlightAware ADS-B
Thu 06:27:34 AM 46.1750 6.0360 226° Southwest 191 220 4,800 2,229 Climbing FlightAware ADS-B
Thu 06:27:49 AM 46.1660 6.0220 227° Southwest 193 222 5,300 2,217 Climbing FlightAware ADS-B
Thu 06:28:20 AM 46.1470 5.9930 227° Southwest 192 221 6,500 2,250 Climbing FlightAware ADS-B
Thu 06:28:45 AM 46.1300 5.9670 227° Southwest 206 237 7,400 1,733 Climbing FlightAware ADS-B
Thu 06:29:05 AM 46.1250 5.9380 256° West 245 282 7,800 968 Climbing FlightAware ADS-B
Thu 06:29:16 AM 46.1290 5.9190 287° West 266 306 7,900 1,200 Climbing FlightAware ADS-B
Thu 06:29:30 AM 46.1400 5.8990 308° West 275 316 8,300 2,069 Climbing FlightAware ADS-B
Thu 06:29:45 AM 46.1580 5.8850 332° Northwest 286 329 8,900 2,000 Climbing FlightAware ADS-B
Thu 06:30:00 AM 46.1760 5.8730 335° Northwest 303 349 9,300 2,160 Climbing FlightAware ADS-B
Thu 06:30:35 AM 46.2220 5.8340 330° Northwest 335 386 10,700 2,112 Climbing FlightAware ADS-B
Thu 06:32:05 AM 46.3470 5.6910 322° Northwest 414 476 13,700 1,629 Climbing FlightAware ADS-B
Thu 06:33:06 AM 46.4380 5.6120 329° Northwest 431 496 14,800 695 Climbing FlightAware ADS-B
Thu 06:33:40 AM 46.4870 5.5690 329° Northwest 431 496 14,800 152 Level FlightAware ADS-B
Thu 06:34:25 AM 46.5840 5.5190 340° North 430 495 15,000 75 Climbing FlightAware ADS-B
Thu 06:36:19 AM 46.7710 5.4100 338° Northwest 430 495 15,000 2,321 Level FlightAware ADS-B
Thu 06:37:13 AM 46.8890 5.2920 326° Northwest 418 481 21,500 4,438 Climbing FlightAware ADS-B
Thu 06:37:55 AM 46.9610 5.2380 333° Northwest 452 520 22,100 1,152 Climbing FlightAware ADS-B
Thu 06:38:52 AM 47.0720 5.1520 332° Northwest 480 552 23,400 1,608 Climbing FlightAware ADS-B
Thu 06:39:32 AM 47.1540 5.0860 331° Northwest 496 571 24,700 1,009 Climbing FlightAware ADS-B
Thu 06:40:45 AM 47.2840 4.9780 331° Northwest 493 567 25,300 1,357 Climbing FlightAware ADS-B
Thu 06:41:27 AM 47.3880 4.8980 332° Northwest 533 613 27,300 2,714 Climbing FlightAware ADS-B
Thu 06:42:09 AM 47.4890 4.8100 330° Northwest 530 610 29,100 2,169 Climbing FlightAware ADS-B
Thu 06:42:50 AM 47.5720 4.7310 327° Northwest 529 609 30,300 1,624 Climbing FlightAware ADS-B
Thu 06:43:34 AM 47.6560 4.6330 322° Northwest 530 610 31,400 1,395 Climbing FlightAware ADS-B
Thu 06:44:16 AM 47.7300 4.5340 318° Northwest 529 609 32,300 1,324 Climbing FlightAware ADS-B
Thu 06:44:42 AM 47.7800 4.4680 318° Northwest 528 608 32,900 1,457 Climbing FlightAware ADS-B
Thu 06:45:26 AM 47.8490 4.3740 318° Northwest 502 578 34,000 776 Climbing FlightAware ADS-B
Thu 06:46:07 AM 47.9280 4.2670 318° Northwest 496 571 34,000  Level FlightAware ADS-B
Thu 06:46:44 AM 47.9880 4.1860 318° Northwest 501 577 34,000  Level FlightAware ADS-B
Thu 06:47:26 AM 48.0470 4.1060 318° Northwest 507 583 34,000  Level FlightAware ADS-B
Thu 06:48:14 AM 48.1430 3.9730 317° Northwest 517 595 34,000  Level FlightAware ADS-B
Thu 06:48:51 AM 48.2110 3.8780 317° Northwest 520 598 34,000  Level FlightAware ADS-B
Thu 06:49:40 AM 48.2970 3.7600 318° Northwest 522 601 34,000  Level FlightAware ADS-B
Thu 06:50:17 AM 48.3620 3.6690 317° Northwest 523 602 34,000  Level FlightAware ADS-B
Thu 06:51:02 AM 48.4410 3.5590 317° Northwest 513 590 34,000  Level FlightAware ADS-B
Thu 06:51:38 AM 48.5040 3.4700 317° Northwest 512 589 34,000  Level FlightAware ADS-B
Thu 06:52:21 AM 48.5800 3.3670 318° Northwest 514 592 34,000  Level FlightAware ADS-B
Thu 06:53:10 AM 48.6780 3.2730 328° Northwest 511 588 34,000  Level FlightAware ADS-B
Thu 06:53:50 AM 48.7630 3.2120 335° Northwest 511 588 34,000  Level FlightAware ADS-B
Thu 06:54:34 AM 48.8570 3.1430 334° Northwest 503 579 34,000  Level FlightAware ADS-B
Thu 06:55:02 AM 48.9150 3.1010 335° Northwest 510 587 34,000  Level FlightAware ADS-B
Thu 06:55:42 AM 48.9990 3.0400 335° Northwest 508 585 34,000  Level FlightAware ADS-B
Thu 06:56:25 AM 49.0940 2.9720 335° Northwest 506 582 34,000  Level FlightAware ADS-B
Thu 06:57:07 AM 49.1830 2.9080 335° Northwest 503 579 34,000  Level FlightAware ADS-B
Thu 06:57:47 AM 49.2640 2.8490 335° Northwest 502 578 34,000  Level FlightAware ADS-B
Thu 06:58:26 AM 49.3410 2.7920 334° Northwest 501 577 34,000  Level FlightAware ADS-B
Thu 06:59:14 AM 49.4450 2.7140 334° Northwest 502 578 34,000  Level FlightAware ADS-B
Thu 06:59:52 AM 49.5200 2.6590 335° Northwest 503 579 34,000  Level FlightAware ADS-B
Thu 07:00:43 AM 49.6531 2.5761 335° Northwest 454 522 34,000 -69 Level FlightAware UK
Thu 07:01:19 AM 49.7276 2.5200 334° Northwest 452 520 33,900  Descending FlightAware UK
Thu 07:01:28 AM 49.6970 2.5220 334° Northwest 503 579 34,000 143 Climbing FlightAware ADS-B
Thu 07:02:01 AM 49.8155 2.4537 334° Northwest 452 520 34,000  Level FlightAware UK
Thu 07:02:13 AM 49.8190 2.4340 334° Northwest 503 579 34,000  Level FlightAware ADS-B
Thu 07:02:43 AM 49.9031 2.3870 334° Northwest 450 518 34,000  Level FlightAware UK
Thu 07:02:57 AM 49.9130 2.3630 334° Northwest 504 580 34,000  Level FlightAware ADS-B
Thu 07:03:32 AM 49.9820 2.3110 334° Northwest 500 575 34,000  Level FlightAware ADS-B
Thu 07:04:18 AM 50.0800 2.2350 334° Northwest 511 588 34,000  Level FlightAware ADS-B
Thu 07:04:59 AM 50.1690 2.1660 334° Northwest 515 593 34,000  Level FlightAware ADS-B
Thu 07:06:20 AM 50.2940 2.0690 334° Northwest 518 596 34,000  Level FlightAware ADS-B
Thu 07:06:58 AM 50.4140 1.9420 334° Northwest 526 605 34,000  Level FlightAware ADS-B
Thu 07:07:01 AM 50.4401 1.9344 334° Northwest 460 529 34,000  Level FlightAware UK
Thu 07:07:31 AM 50.4955 1.8604 334° Northwest 460 529 34,000  Level FlightAware UK
Thu 07:07:39 AM 50.4870 1.8440 334° Northwest 521 600 34,000  Level FlightAware ADS-B
Thu 07:08:19 AM 50.5832 1.7402 334° Northwest 458 527 34,000  Level FlightAware UK
Thu 07:08:28 AM 50.5780 1.7180 334° Northwest 529 609 34,000  Level FlightAware ADS-B
Thu 07:09:11 AM 50.6590 1.6070 319° Northwest 530 610 34,000  Level FlightAware ADS-B
Thu 07:09:50 AM 50.7290 1.5100 319° Northwest 530 610 34,000  Level FlightAware ADS-B
Thu 07:10:28 AM 50.7960 1.4150 318° Northwest 529 609 34,000  Level FlightAware ADS-B
Thu 07:11:18 AM 50.9122 1.2815 318° Northwest 464 534 34,000  Level FlightAware UK
Thu 07:11:27 AM 50.9090 1.2580 318° Northwest 527 606 34,000  Level FlightAware ADS-B
Thu 07:12:00 AM 50.9698 1.1731 319° Northwest 525 604 34,000 176 Level FlightAware ADS-B
Thu 07:12:35 AM 51.0294 1.0784 315° West 522 601 34,200 667 Climbing FlightAware ADS-B
Thu 07:12:54 AM 51.0548 1.0169 303° West 516 594 34,600 1,333 Climbing FlightAware ADS-B
Thu 07:13:02 AM 51.0638 0.9911 299° West 515 593 34,800 1,000 Climbing FlightAware ADS-B
Thu 07:13:18 AM 51.0793 0.9377 295° West 513 590 35,000 906 Climbing FlightAware ADS-B
Thu 07:13:55 AM 51.1058 0.8042 288° West 509 586 35,600 870 Climbing FlightAware ADS-B
Thu 07:14:27 AM 51.1271 0.6890 286° West 509 586 36,000 375 Climbing FlightAware ADS-B
Thu 07:14:59 AM 51.1470 0.5775 286° West 511 588 36,000  Level FlightAware ADS-B
Thu 07:15:31 AM 51.1679 0.4590 286° West 512 589 36,000  Level FlightAware ADS-B
Thu 07:16:10 AM 51.1927 0.3191 286° West 513 590 36,000  Level FlightAware ADS-B
Thu 07:16:41 AM 51.2121 0.2078 286° West 509 586 36,000  Level FlightAware ADS-B
Thu 07:17:11 AM 51.2315 0.0971 286° West 507 583 36,000  Level FlightAware ADS-B
Thu 07:17:42 AM 51.2505 -0.0108 286° West 505 581 36,000  Level FlightAware ADS-B
Thu 07:18:13 AM 51.2703 -0.1228 286° West 503 579 36,000  Level FlightAware ADS-B
Thu 07:18:43 AM 51.2895 -0.2306 286° West 500 575 36,000  Level FlightAware ADS-B
Thu 07:19:16 AM 51.3096 -0.3444 286° West 498 573 36,000  Level FlightAware ADS-B
Thu 07:19:46 AM 51.3289 -0.4527 286° West 496 571 36,000  Level FlightAware ADS-B
Thu 07:20:17 AM 51.3474 -0.5603 285° West 494 568 36,000  Level FlightAware ADS-B
Thu 07:20:47 AM 51.3645 -0.6659 285° West 494 568 36,000  Level FlightAware ADS-B
Thu 07:21:19 AM 51.3825 -0.7771 285° West 494 568 36,000  Level FlightAware ADS-B
Thu 07:21:52 AM 51.4013 -0.8949 284° West 493 567 36,000  Level FlightAware ADS-B
Thu 07:22:23 AM 51.4186 -1.0034 284° West 493 567 36,000  Level FlightAware ADS-B
Thu 07:22:57 AM 51.4378 -1.1237 284° West 492 566 36,000  Level FlightAware ADS-B
Thu 07:23:29 AM 51.4557 -1.2372 284° West 492 566 36,000  Level FlightAware ADS-B
Thu 07:24:01 AM 51.4733 -1.3493 284° West 492 566 36,000  Level FlightAware ADS-B
Thu 07:24:33 AM 51.4909 -1.4607 284° West 492 566 36,000  Level FlightAware ADS-B
Thu 07:25:03 AM 51.5077 -1.5687 284° West 492 566 36,000  Level FlightAware ADS-B
Thu 07:25:35 AM 51.5252 -1.6811 284° West 492 566 36,000  Level FlightAware ADS-B
Thu 07:26:06 AM 51.5424 -1.7921 284° West 493 567 36,000  Level FlightAware ADS-B
Thu 07:26:38 AM 51.5598 -1.9055 284° West 493 567 36,000  Level FlightAware ADS-B
Thu 07:27:10 AM 51.5774 -2.0174 284° West 493 567 36,000  Level FlightAware ADS-B
Thu 07:27:42 AM 51.5949 -2.1324 284° West 493 567 36,000  Level FlightAware ADS-B
Thu 07:28:13 AM 51.6113 -2.2417 284° West 492 566 36,000  Level FlightAware ADS-B
Thu 07:28:47 AM 51.6292 -2.3631 283° West 492 566 36,000  Level FlightAware ADS-B
Thu 07:29:19 AM 51.6451 -2.4738 283° West 490 564 36,000  Level FlightAware ADS-B
Thu 07:29:51 AM 51.6615 -2.5885 283° West 488 562 36,000  Level FlightAware ADS-B
Thu 07:30:23 AM 51.6774 -2.7011 283° West 485 558 36,000  Level FlightAware ADS-B
Thu 07:31:04 AM 51.6977 -2.8438 283° West 482 555 36,000  Level FlightAware ADS-B
Thu 07:31:40 AM 51.7150 -2.9620 283° West 473 544 36,000  Level FlightAware ADS-B
Thu 07:32:21 AM 51.7350 -3.1040 283° West 467 537 36,000  Level FlightAware ADS-B
Thu 07:33:03 AM 51.7540 -3.2490 282° West 464 534 36,000  Level FlightAware ADS-B
Thu 07:33:47 AM 51.7730 -3.3920 282° West 462 532 36,000  Level FlightAware ADS-B
Thu 07:34:27 AM 51.7920 -3.5290 283° West 460 529 36,000  Level FlightAware ADS-B
Thu 07:35:09 AM 51.8310 -3.6810 283° West 450 518 36,000  Level FlightAware UK
Thu 07:35:09 AM 51.8100 -3.6710 283° West 459 528 36,000  Level FlightAware ADS-B
Thu 07:35:39 AM 51.8444 -3.7817 283° West 450 518 36,000  Level FlightAware UK
Thu 07:35:53 AM 51.8290 -3.8170 283° West 457 526 36,000  Level FlightAware ADS-B
Thu 07:36:33 AM 51.8470 -3.9520 282° West 456 525 36,000  Level FlightAware ADS-B
Thu 07:37:15 AM 51.8912 -4.0998 282° West 450 518 36,000  Level FlightAware UK
Thu 07:37:16 AM 51.8700 -4.0920 282° West 457 526 36,000  Level FlightAware ADS-B
Thu 07:37:55 AM 51.8980 -4.2090 282° West 457 526 36,000  Level FlightAware ADS-B
Thu 07:37:57 AM 51.9239 -4.2333 282° West 452 520 36,000  Level FlightAware UK
Thu 07:38:39 AM 51.9550 -4.3682 282° West 456 525 36,000  Level FlightAware UK
Thu 07:38:39 AM 51.9310 -4.3520 282° West 457 526 36,000  Level FlightAware ADS-B
Thu 07:39:09 AM 51.9764 -4.4649 282° West 456 525 36,000  Level FlightAware UK
Thu 07:39:17 AM 51.9590 -4.4780 282° West 456 525 36,000  Level FlightAware ADS-B
Thu 07:40:05 AM 51.9920 -4.6320 289° West 453 521 36,000  Level FlightAware ADS-B
Thu 07:40:43 AM 52.0200 -4.7570 290° West 452 520 36,000  Level FlightAware ADS-B
Thu 07:41:25 AM 52.0480 -4.8900 289° West 451 519 36,000  Level FlightAware ADS-B
Thu 07:42:09 AM 52.0780 -5.0300 289° West 451 519 36,000  Level FlightAware ADS-B
Thu 07:42:51 AM 52.1080 -5.1640 290° West 450 518 36,000  Level FlightAware ADS-B
Thu 07:43:32 AM 52.1370 -5.2910 290° West 450 518 36,000  Level FlightAware ADS-B
Thu 07:44:15 AM 52.2098 -5.4272 290° West 446 513 36,000  Level FlightAware UK
Thu 07:44:18 AM 52.1900 -5.4230 290° West 455 524 36,000  Level FlightAware ADS-B
Thu 07:44:58 AM 52.2390 -5.5350 306° West 455 524 36,000  Level FlightAware ADS-B
Thu 07:45:57 AM 52.3363 -5.7111 306° West 450 518 36,000  Level FlightAware UK
Thu 07:46:10 AM 52.2940 -5.6600 306° West 456 525 36,000  Level FlightAware ADS-B
Thu 07:46:49 AM 52.3780 -5.8410 307° West 456 525 36,000  Level FlightAware ADS-B
Thu 07:47:27 AM 52.4270 -5.9470 307° West 460 529 36,000  Level FlightAware ADS-B
Thu 07:47:33 AM 52.4589 -5.9748 307° West 454 522 36,000  Level FlightAware UK
Thu 07:48:09 AM 52.5052 -6.0747 307° West 456 525 36,000  Level FlightAware UK
Thu 07:48:23 AM 52.4920 -6.0880 307° West 36,000  Level FlightAware ADS-B
Thu 07:49:11 AM 52.5610 -6.2370 307° West 466 536 36,000  Level FlightAware ADS-B
Thu 07:49:45 AM 52.6309 -6.3458 307° West 456 525 36,000  Level FlightAware UK
Thu 07:49:59 AM 52.6210 -6.3660 307° West 469 540 36,000  Level FlightAware ADS-B
Thu 07:50:45 AM 52.7093 -6.5172 307° West 464 534 36,000  Level FlightAware UK
Thu 07:50:45 AM 52.6800 -6.4970 307° West 470 541 36,000  Level FlightAware ADS-B
Thu 07:51:15 AM 52.7485 -6.6034 307° West 464 534 36,000  Level FlightAware UK
Thu 07:51:26 AM 52.7350 -6.6170 307° West 471 542 36,000  Level FlightAware ADS-B
Thu 07:52:13 AM 52.7930 -6.7470 306° West 471 542 36,000  Level FlightAware ADS-B
Thu 07:52:51 AM 52.8735 -6.8799 306° West 460 529 36,000  Level FlightAware UK
Thu 07:52:51 AM 52.8440 -6.8590 306° West 469 540 36,000  Level FlightAware ADS-B
Thu 07:53:21 AM 52.9122 -6.9663 306° West 460 529 36,000  Level FlightAware UK
Thu 07:53:38 AM 52.9050 -6.9950 306° West 469 540 36,000  Level FlightAware ADS-B
Thu 07:54:19 AM 52.9610 -7.1190 307° West 468 539 36,000  Level FlightAware ADS-B
Thu 07:54:51 AM 53.0281 -7.2257 307° West 456 525 36,000  Level FlightAware UK
Thu 07:54:59 AM 53.0110 -7.2320 307° West 467 537 36,000  Level FlightAware ADS-B
Thu 07:55:25 AM 53.0300 -7.2760 306° West 467 537 36,000  Level FlightAware ADS-B
Thu 07:55:56 AM 53.1123 -7.4159 306° West 452 520 36,000  Level FlightAware UK
Thu 07:56:15 AM 53.1060 -7.4480 306° West 469 540 36,000  Level FlightAware ADS-B
Thu 07:56:56 AM 53.1889 -7.5902 306° West 450 518 36,000  Level FlightAware UK
Thu 07:56:58 AM 53.1620 -7.5760 306° West 470 541 36,000  Level FlightAware ADS-B
Thu 07:57:38 AM 53.2130 -7.6930 306° West 471 542 36,000  Level FlightAware ADS-B
Thu 07:58:23 AM 53.2710 -7.8270 306° West 474 545 36,000  Level FlightAware ADS-B
Thu 07:59:02 AM 53.3503 -7.9609 306° West 448 516 36,000  Level FlightAware UK
Thu 07:59:03 AM 53.3220 -7.9450 306° West 474 545 36,000  Level FlightAware ADS-B
Thu 07:59:48 AM 53.3810 -8.0820 306° West 476 548 36,000  Level FlightAware ADS-B
Thu 08:00:28 AM 53.4320 -8.2000 306° West 473 544 36,000  Level FlightAware ADS-B
Thu 08:01:02 AM 53.5044 -8.3196 306° West 466 536 36,000  Level FlightAware UK
Thu 08:01:09 AM 53.4830 -8.3210 306° West 477 549 36,000  Level FlightAware ADS-B
Thu 08:01:50 AM 53.5330 -8.4400 305° West 476 548 36,000  Level FlightAware ADS-B
Thu 08:02:33 AM 53.5900 -8.5740 306° West 474 545 36,000  Level FlightAware ADS-B
Thu 08:03:08 AM 53.6645 -8.6974 306° West 464 534 36,000  Level FlightAware UK
Thu 08:03:13 AM 53.6420 -8.6960 306° West 471 542 36,000  Level FlightAware ADS-B
Thu 08:03:58 AM 53.6970 -8.8290 305° West 464 534 36,000  Level FlightAware ADS-B
Thu 08:04:38 AM 53.7762 -8.9653 305° West 460 529 36,000  Level FlightAware UK
Thu 08:04:38 AM 53.7470 -8.9490 305° West 462 532 36,000  Level FlightAware ADS-B
Thu 08:05:33 AM 53.8150 -9.1140 305° West 460 529 36,000  Level FlightAware ADS-B
Thu 08:06:13 AM 53.8630 -9.2300 305° West 458 527 36,000  Level FlightAware ADS-B
Thu 08:06:59 AM 53.9180 -9.3670 304° West 461 531 36,000  Level FlightAware ADS-B
Thu 08:07:38 AM 53.9650 -9.4820 305° West 461 531 36,000  Level FlightAware ADS-B
Thu 08:08:26 AM 54.0200 -9.6190 304° West 461 531 36,000  Level FlightAware ADS-B
Thu 08:09:03 AM 54.0690 -9.7390 305° West 464 534 36,000  Level FlightAware ADS-B
Thu 08:09:48 AM 54.1220 -9.8720 304° West 466 536 36,000  Level FlightAware ADS-B
Thu 08:10:23 AM 54.1660 -9.9820 304° West 467 537 36,000  Level FlightAware ADS-B
Thu 08:11:08 AM 54.2200 -10.1170 304° West 466 536 36,000  Level FlightAware ADS-B
Thu 08:11:53 AM 54.2730 -10.2540 304° West 467 537 36,000  Level FlightAware ADS-B
Thu 08:12:39 AM 54.3280 -10.3920 304° West 464 534 36,000  Level FlightAware ADS-B
Thu 08:13:18 AM 54.3760 -10.5160 304° West 463 533 36,000  Level FlightAware ADS-B
Thu 08:13:59 AM 54.4230 -10.6360 304° West 462 532 36,000  Level FlightAware ADS-B
Thu 08:14:38 AM 54.4710 -10.7600 304° West 461 531 36,000 429 Level FlightAware ADS-B
Thu 08:15:23 AM 54.5240 -10.8990 303° West 453 521 36,600 667 Climbing FlightAware ADS-B
Thu 08:16:08 AM 54.5750 -11.0330 303° West 452 520 37,000 279 Climbing FlightAware ADS-B
Thu 08:16:49 AM 54.6230 -11.1570 304° West 453 521 37,000  Level FlightAware ADS-B
Thu 08:17:23 AM 54.6490 -11.2250 303° West 453 521 37,000  Level FlightAware ADS-B
Thu 08:18:13 AM 54.7200 -11.4140 303° West 458 527 37,000  Level FlightAware ADS-B
Thu 08:18:53 AM 54.7680 -11.5410 303° West 459 528 37,000  Level FlightAware ADS-B
Thu 08:19:38 AM 54.8150 -11.6680 303° West 459 528 37,000  Level FlightAware ADS-B
Thu 08:20:19 AM 54.8660 -11.8060 303° West 460 529 37,000  Level FlightAware ADS-B
Thu 08:21:27 AM 54.8850 -11.8590 302° West 461 531 37,000  Level FlightAware ADS-B
Thu 08:22:06 AM 54.9860 -12.1330 303° West 461 531 37,000  Level FlightAware ADS-B
Thu 08:22:48 AM 55.0370 -12.2740 302° West 459 528 37,000  Level FlightAware ADS-B
Thu 08:23:34 AM 55.0900 -12.4210 302° West 461 531 37,000  Level FlightAware ADS-B
Thu 08:24:19 AM 55.1410 -12.5620 302° West 458 527 37,000  Level FlightAware ADS-B
Thu 08:24:59 AM 55.1870 -12.6890 302° West 456 525 37,000  Level FlightAware ADS-B
Thu 08:26:05 AM 55.2510 -12.8740 301° West 454 522 37,000  Level FlightAware ADS-B
Thu 08:26:44 AM 55.2990 -13.0070 302° West 446 513 37,000  Level FlightAware ADS-B
Thu 08:27:30 AM 55.3420 -13.1340 301° West 446 513 37,000  Level FlightAware ADS-B
Thu 08:28:04 AM 55.3720 -13.2240 300° West 446 513 37,000  Level FlightAware ADS-B
Thu 08:28:53 AM 55.4150 -13.3560 300° West 446 513 37,000  Level FlightAware ADS-B
Thu 08:29:27 AM 55.4450 -13.4470 300° West 446 513 37,000  Level FlightAware ADS-B
Thu 08:30:51 AM 55.5180 -13.6720 300° West 446 513 37,000  Level FlightAware ADS-B
Thu 08:31:32 AM 55.5540 -13.7820 300° West 446 513 37,000  Level FlightAware ADS-B
Thu 08:32:18 AM 55.5940 -13.9050 300° West 446 513 37,000  Level FlightAware ADS-B
Thu 08:32:52 AM 55.6240 -13.9970 300° West 446 513 37,000  Level FlightAware ADS-B
Thu 08:33:40 AM 55.6660 -14.1260 300° West 446 513 37,000  Level FlightAware ADS-B
Thu 08:34:04 AM 55.6870 -14.1910 300° West 446 513 37,000  Level FlightAware ADS-B
Thu 08:34:51 AM 55.7290 -14.3180 300° West 446 513 37,000  Level FlightAware ADS-B
Thu 08:35:30 AM 55.7630 -14.4230 300° West 446 513 37,000  Level FlightAware ADS-B
Thu 08:36:07 AM 55.7950 -14.5230 300° West 446 513 37,000  Level FlightAware ADS-B
Thu 08:36:57 AM 55.8390 -14.6580 300° West 446 513 37,000  Level FlightAware ADS-B
Thu 08:39:00 AM 55.8786 -15.0814 280° West  Level Estimated
Thu 08:40:00 AM 55.8974 -15.2883 279° West  Level Estimated
Thu 08:41:00 AM 55.9158 -15.4953 279° West  Level Estimated
Thu 08:42:00 AM 55.9339 -15.7026 279° West  Level Estimated
Thu 08:43:00 AM 55.9516 -15.9100 279° West  Level Estimated
Thu 08:44:00 AM 55.9690 -16.1176 279° West  Level Estimated
Thu 08:45:00 AM 55.9861 -16.3254 278° West  Level Estimated
Thu 08:46:00 AM 56.0028 -16.5334 278° West  Level Estimated
Thu 08:47:00 AM 56.0191 -16.7416 278° West  Level Estimated
Thu 08:48:00 AM 56.0772 -16.9226 300° West  Level FlightAware Approximate
Thu 08:49:00 AM 56.1350 -17.1041 300° West  Level FlightAware Approximate
Thu 08:50:00 AM 56.1943 -17.2917 300° West  Level FlightAware Approximate
Thu 08:51:00 AM 56.2533 -17.4798 300° West  Level FlightAware Approximate
Thu 08:52:00 AM 56.3121 -17.6685 299° West  Level FlightAware Approximate
Thu 08:53:00 AM 56.3705 -17.8578 299° West  Level FlightAware Approximate
Thu 08:54:00 AM 56.4287 -18.0477 299° West  Level FlightAware Approximate
Thu 08:55:00 AM 56.4865 -18.2381 299° West  Level FlightAware Approximate
Thu 08:56:00 AM 56.5441 -18.4291 299° West  Level FlightAware Approximate
Thu 08:57:00 AM 56.6013 -18.6208 299° West  Level FlightAware Approximate
Thu 08:58:00 AM 56.6583 -18.8129 298° West  Level FlightAware Approximate
Thu 08:59:00 AM 56.7150 -19.0057 298° West  Level FlightAware Approximate
Thu 09:00:00 AM 56.7714 -19.1991 298° West  Level FlightAware Approximate
Thu 09:01:00 AM 56.8275 -19.3930 298° West  Level FlightAware Approximate
Thu 09:02:00 AM 56.8833 -19.5875 298° West  Level FlightAware Approximate
Thu 09:02:00 AM 57.0000 -20.0000 285° West 427 491 37,000  Level ETMS Enhanced Traffic Management System
Thu 09:03:00 AM 56.9387 -19.7826 298° West  Level FlightAware Approximate
Thu 09:04:00 AM 56.9939 -19.9783 297° West  Level FlightAware Approximate
Thu 09:05:00 AM 57.0023 -20.1982 285° West  Level Estimated
Thu 09:06:00 AM 57.0329 -20.4115 285° West  Level FlightAware Approximate
Thu 09:07:00 AM 57.0631 -20.6252 285° West  Level FlightAware Approximate
Thu 09:08:00 AM 57.2026 -21.4835 283° West 427 491 37,000  Level FlightAware Transoceanic
Thu 09:09:00 AM 57.2301 -21.6968 283° West 427 491 37,000  Level FlightAware Transoceanic
Thu 09:10:00 AM 57.2573 -21.9103 283° West 427 491 37,000  Level FlightAware Transoceanic
Thu 09:11:00 AM 57.2841 -22.1242 283° West 427 491 37,000  Level FlightAware Transoceanic
Thu 09:12:00 AM 57.3105 -22.3384 283° West 427 491 37,000  Level FlightAware Transoceanic
Thu 09:13:00 AM 57.3366 -22.5529 283° West 427 491 37,000  Level FlightAware Transoceanic
Thu 09:14:00 AM 57.3622 -22.7677 282° West 427 491 37,000  Level FlightAware Transoceanic
Thu 09:15:00 AM 57.3876 -22.9827 282° West 427 491 37,000  Level FlightAware Transoceanic
Thu 09:16:00 AM 57.4125 -23.1981 282° West 427 491 37,000  Level FlightAware Transoceanic
Thu 09:17:00 AM 57.4371 -23.4138 282° West 427 491 37,000  Level FlightAware Transoceanic
Thu 09:18:00 AM 57.4613 -23.6297 282° West 427 491 37,000  Level FlightAware Transoceanic
Thu 09:19:00 AM 57.4852 -23.8460 282° West 427 491 37,000  Level FlightAware Transoceanic
Thu 09:20:00 AM 57.5087 -24.0625 281° West 427 491 37,000  Level FlightAware Transoceanic
Thu 09:21:00 AM 57.5318 -24.2793 281° West 427 491 37,000  Level FlightAware Transoceanic
Thu 09:22:00 AM 57.5545 -24.4964 281° West 427 491 37,000  Level FlightAware Transoceanic
Thu 09:23:00 AM 57.5769 -24.7137 281° West 427 491 37,000  Level FlightAware Transoceanic
Thu 09:24:00 AM 57.5989 -24.9313 281° West 427 491 37,000  Level FlightAware Transoceanic
Thu 09:25:00 AM 57.6205 -25.1492 280° West 427 491 37,000  Level FlightAware Transoceanic
Thu 09:26:00 AM 57.6418 -25.3673 280° West 427 491 37,000  Level FlightAware Transoceanic
Thu 09:27:00 AM 57.6626 -25.5857 280° West 427 491 37,000  Level FlightAware Transoceanic
Thu 09:28:00 AM 57.6831 -25.8043 280° West 427 491 37,000  Level FlightAware Transoceanic
Thu 09:29:00 AM 57.7032 -26.0232 280° West 427 491 37,000  Level FlightAware Transoceanic
Thu 09:30:00 AM 57.7230 -26.2423 279° West 427 491 37,000  Level FlightAware Transoceanic
Thu 09:31:00 AM 57.7423 -26.4617 279° West 427 491 37,000  Level FlightAware Transoceanic
Thu 09:32:00 AM 57.7613 -26.6813 279° West 427 491 37,000  Level FlightAware Transoceanic
Thu 09:33:00 AM 57.7799 -26.9011 279° West 427 491 37,000  Level FlightAware Transoceanic
Thu 09:34:00 AM 57.7981 -27.1211 279° West 427 491 37,000  Level FlightAware Transoceanic
Thu 09:35:00 AM 57.8159 -27.3414 279° West 427 491 37,000  Level FlightAware Transoceanic
Thu 09:36:00 AM 57.8334 -27.5618 278° West 427 491 37,000  Level FlightAware Transoceanic
Thu 09:37:00 AM 57.8505 -27.7825 278° West 427 491 37,000  Level FlightAware Transoceanic
Thu 09:38:00 AM 57.8672 -28.0034 278° West 427 491 37,000  Level FlightAware Transoceanic
Thu 09:39:00 AM 57.8835 -28.2245 278° West 427 491 37,000  Level FlightAware Transoceanic
Thu 09:40:00 AM 57.8994 -28.4458 278° West 427 491 37,000  Level FlightAware Transoceanic
Thu 09:41:00 AM 57.9149 -28.6673 277° West 427 491 37,000  Level FlightAware Transoceanic
Thu 09:42:00 AM 57.9301 -28.8890 277° West 427 491 37,000  Level FlightAware Transoceanic
Thu 09:43:00 AM 57.9448 -29.1108 277° West 427 491 37,000  Level FlightAware Transoceanic
Thu 09:44:00 AM 57.9592 -29.3328 277° West 427 491 37,000  Level FlightAware Transoceanic
Thu 09:45:00 AM 57.9732 -29.5551 277° West 427 491 37,000  Level FlightAware Transoceanic
Thu 09:46:00 AM 57.9868 -29.7775 276° West 427 491 37,000  Level FlightAware Transoceanic
Thu 09:47:00 AM 58.0001 -30.0026 276° West  Level FlightAware Approximate
Thu 09:48:00 AM 57.9997 -30.0052 264° West  Level FlightAware Approximate
Thu 09:49:00 AM 57.9863 -30.2304 264° West  Level FlightAware Approximate
Thu 09:50:00 AM 57.9725 -30.4554 264° West  Level FlightAware Approximate
Thu 09:51:00 AM 57.9584 -30.6802 263° West  Level FlightAware Approximate
Thu 09:52:00 AM 57.9438 -30.9053 263° West  Level FlightAware Approximate
Thu 09:53:00 AM 57.9288 -31.1303 263° West  Level FlightAware Approximate
Thu 09:54:00 AM 57.9134 -31.3550 263° West  Level FlightAware Approximate
Thu 09:55:00 AM 57.8976 -31.5796 263° West  Level FlightAware Approximate
Thu 09:56:00 AM 57.8814 -31.8039 262° West  Level FlightAware Approximate
Thu 09:57:00 AM 57.8648 -32.0281 262° West  Level FlightAware Approximate
Thu 09:58:00 AM 57.8478 -32.2520 262° West  Level FlightAware Approximate
Thu 09:59:00 AM 57.8304 -32.4758 262° West  Level FlightAware Approximate
Thu 10:00:00 AM 57.8127 -32.6993 262° West  Level FlightAware Approximate
Thu 10:01:00 AM 57.7945 -32.9226 261° West  Level FlightAware Approximate
Thu 10:02:00 AM 57.7760 -33.1456 261° West  Level FlightAware Approximate
Thu 10:03:00 AM 57.7570 -33.3685 261° West  Level FlightAware Approximate
Thu 10:04:00 AM 57.7377 -33.5911 261° West  Level FlightAware Approximate
Thu 10:05:00 AM 57.7180 -33.8134 261° West  Level FlightAware Approximate
Thu 10:06:00 AM 57.6979 -34.0355 260° West  Level FlightAware Approximate
Thu 10:07:00 AM 57.6774 -34.2574 260° West  Level FlightAware Approximate
Thu 10:08:00 AM 57.6565 -34.4790 260° West  Level FlightAware Approximate
Thu 10:09:00 AM 57.6352 -34.7004 260° West  Level FlightAware Approximate
Thu 10:10:00 AM 57.6135 -34.9215 260° West  Level FlightAware Approximate
Thu 10:11:00 AM 57.5915 -35.1423 260° West  Level FlightAware Approximate
Thu 10:12:00 AM 57.5691 -35.3628 259° West  Level FlightAware Approximate
Thu 10:13:00 AM 57.5462 -35.5831 259° West  Level FlightAware Approximate
Thu 10:14:00 AM 57.5230 -35.8031 259° West  Level FlightAware Approximate
Thu 10:15:00 AM 57.4995 -36.0228 259° West  Level FlightAware Approximate
Thu 10:16:00 AM 57.4755 -36.2423 259° West  Level FlightAware Approximate
Thu 10:17:00 AM 57.4512 -36.4614 258° West  Level FlightAware Approximate
Thu 10:18:00 AM 57.4264 -36.6803 258° West  Level FlightAware Approximate
Thu 10:19:00 AM 57.4013 -36.8988 258° West  Level FlightAware Approximate
Thu 10:20:00 AM 57.3759 -37.1171 258° West  Level FlightAware Approximate
Thu 10:21:00 AM 57.3500 -37.3350 258° West  Level FlightAware Approximate
Thu 10:22:00 AM 57.3238 -37.5527 258° West  Level FlightAware Approximate
Thu 10:23:00 AM 57.2972 -37.7700 257° West  Level FlightAware Approximate
Thu 10:24:00 AM 57.2702 -37.9870 257° West  Level FlightAware Approximate
Thu 10:25:00 AM 57.2428 -38.2037 257° West  Level FlightAware Approximate
Thu 10:26:00 AM 57.2151 -38.4201 257° West  Level FlightAware Approximate
Thu 10:27:00 AM 57.1870 -38.6361 257° West  Level FlightAware Approximate
Thu 10:28:00 AM 57.1585 -38.8518 256° West  Level FlightAware Approximate
Thu 10:29:00 AM 57.1297 -39.0672 256° West  Level FlightAware Approximate
Thu 10:30:00 AM 57.1005 -39.2822 256° West  Level FlightAware Approximate
Thu 10:31:00 AM 57.0709 -39.4969 256° West  Level FlightAware Approximate
Thu 10:32:00 AM 57.0410 -39.7113 256° West  Level FlightAware Approximate
Thu 10:33:00 AM 57.0107 -39.9253 256° West  Level FlightAware Approximate
Thu 10:34:00 AM 56.9916 -40.1429 264° West  Level FlightAware Approximate
Thu 10:35:00 AM 56.9785 -40.3625 264° West  Level FlightAware Approximate
Thu 10:36:00 AM 56.9649 -40.5819 264° West  Level FlightAware Approximate
Thu 10:37:00 AM 56.9510 -40.8011 263° West  Level FlightAware Approximate
Thu 10:38:00 AM 56.9366 -41.0202 263° West  Level FlightAware Approximate
Thu 10:38:00 AM 57.0000 -40.0000 264° West 411 473 37,000  Level ETMS Enhanced Traffic Management System
Thu 10:39:00 AM 56.9220 -41.2391 263° West  Level FlightAware Approximate
Thu 10:40:00 AM 56.9068 -41.4583 263° West  Level FlightAware Approximate
Thu 10:41:00 AM 56.8913 -41.6774 263° West  Level FlightAware Approximate
Thu 10:42:00 AM 56.8754 -41.8962 263° West  Level FlightAware Approximate
Thu 10:43:00 AM 56.8592 -42.1149 262° West  Level FlightAware Approximate
Thu 10:44:00 AM 56.8922 -41.6658 263° West 411 473 37,000  Level FlightAware Transoceanic
Thu 10:45:00 AM 56.8771 -41.8733 262° West 411 473 37,000  Level FlightAware Transoceanic
Thu 10:46:00 AM 56.8617 -42.0807 262° West 411 473 37,000  Level FlightAware Transoceanic
Thu 10:47:00 AM 56.8460 -42.2878 262° West 411 473 37,000  Level FlightAware Transoceanic
Thu 10:48:00 AM 56.8299 -42.4948 262° West 411 473 37,000  Level FlightAware Transoceanic
Thu 10:49:00 AM 56.8135 -42.7016 262° West 411 473 37,000  Level FlightAware Transoceanic
Thu 10:50:00 AM 56.7968 -42.9083 261° West 411 473 37,000  Level FlightAware Transoceanic
Thu 10:51:00 AM 56.7797 -43.1147 261° West 411 473 37,000  Level FlightAware Transoceanic
Thu 10:52:00 AM 56.7623 -43.3210 261° West 411 473 37,000  Level FlightAware Transoceanic
Thu 10:53:00 AM 56.7445 -43.5271 261° West 411 473 37,000  Level FlightAware Transoceanic
Thu 10:54:00 AM 56.7264 -43.7329 261° West 411 473 37,000  Level FlightAware Transoceanic
Thu 10:55:00 AM 56.7080 -43.9386 261° West 411 473 37,000  Level FlightAware Transoceanic
Thu 10:56:00 AM 56.6892 -44.1441 260° West 411 473 37,000  Level FlightAware Transoceanic
Thu 10:57:00 AM 56.6700 -44.3493 260° West 411 473 37,000  Level FlightAware Transoceanic
Thu 10:58:00 AM 56.6506 -44.5544 260° West 411 473 37,000  Level FlightAware Transoceanic
Thu 10:59:00 AM 56.6308 -44.7592 260° West 411 473 37,000  Level FlightAware Transoceanic
Thu 11:00:00 AM 56.6106 -44.9639 260° West 411 473 37,000  Level FlightAware Transoceanic
Thu 11:01:00 AM 56.5902 -45.1683 260° West 411 473 37,000  Level FlightAware Transoceanic
Thu 11:02:00 AM 56.5694 -45.3724 259° West 411 473 37,000  Level FlightAware Transoceanic
Thu 11:03:00 AM 56.5482 -45.5764 259° West 411 473 37,000  Level FlightAware Transoceanic
Thu 11:04:00 AM 56.5267 -45.7801 259° West 411 473 37,000  Level FlightAware Transoceanic
Thu 11:05:00 AM 56.5050 -45.9836 259° West 411 473 37,000  Level FlightAware Transoceanic
Thu 11:06:00 AM 56.4828 -46.1869 259° West 411 473 37,000  Level FlightAware Transoceanic
Thu 11:07:00 AM 56.4603 -46.3899 259° West 411 473 37,000  Level FlightAware Transoceanic
Thu 11:08:00 AM 56.4375 -46.5927 258° West 411 473 37,000  Level FlightAware Transoceanic
Thu 11:09:00 AM 56.4144 -46.7952 258° West 411 473 37,000  Level FlightAware Transoceanic
Thu 11:10:00 AM 56.3909 -46.9975 258° West 411 473 37,000  Level FlightAware Transoceanic
Thu 11:11:00 AM 56.3672 -47.1995 258° West 411 473 37,000  Level FlightAware Transoceanic
Thu 11:12:00 AM 56.3430 -47.4013 258° West 411 473 37,000  Level FlightAware Transoceanic
Thu 11:13:00 AM 56.3186 -47.6028 258° West 411 473 37,000  Level FlightAware Transoceanic
Thu 11:14:00 AM 56.2938 -47.8041 257° West 411 473 37,000  Level FlightAware Transoceanic
Thu 11:15:00 AM 56.2687 -48.0051 257° West 411 473 37,000  Level FlightAware Transoceanic
Thu 11:16:00 AM 56.2433 -48.2058 257° West 411 473 37,000  Level FlightAware Transoceanic
Thu 11:17:00 AM 56.2176 -48.4062 257° West 411 473 37,000  Level FlightAware Transoceanic
Thu 11:18:00 AM 56.1915 -48.6064 257° West 411 473 37,000  Level FlightAware Transoceanic
Thu 11:19:00 AM 56.1651 -48.8064 257° West 411 473 37,000  Level FlightAware Transoceanic
Thu 11:20:00 AM 56.1384 -49.0060 256° West 411 473 37,000  Level FlightAware Transoceanic
Thu 11:21:00 AM 56.1114 -49.2054 256° West 411 473 37,000  Level FlightAware Transoceanic
Thu 11:22:00 AM 56.0840 -49.4045 256° West 411 473 37,000  Level FlightAware Transoceanic
Thu 11:23:00 AM 56.0563 -49.6033 256° West 411 473 37,000  Level FlightAware Transoceanic
Thu 11:24:00 AM 56.0283 -49.8018 256° West 411 473 37,000  Level FlightAware Transoceanic
Thu 11:25:00 AM 55.9984 -50.0108 256° West  Level FlightAware Approximate
Thu 11:25:57 AM 56.0000 -50.0000 250° West 433 498 37,000  Level ETMS Enhanced Traffic Management System
Thu 11:26:00 AM 55.9950 -50.0205 246° West  Level FlightAware Approximate
Thu 11:27:00 AM 55.9465 -50.2179 246° West  Level FlightAware Approximate
Thu 11:28:00 AM 55.8978 -50.4148 246° West  Level FlightAware Approximate
Thu 11:29:00 AM 55.8487 -50.6112 246° West  Level FlightAware Approximate
Thu 11:30:00 AM 55.7993 -50.8071 246° West  Level FlightAware Approximate
Thu 11:31:00 AM 55.7496 -51.0025 246° West  Level FlightAware Approximate
Thu 11:32:00 AM 55.6589 -51.6042 249° West 433 498 37,000  Level FlightAware Transoceanic
Thu 11:33:00 AM 55.6147 -51.8028 248° West 433 498 37,000  Level FlightAware Transoceanic
Thu 11:34:00 AM 55.5703 -52.0009 248° West 433 498 37,000  Level FlightAware Transoceanic
Thu 11:35:00 AM 55.5256 -52.1985 248° West 433 498 37,000  Level FlightAware Transoceanic
Thu 11:36:00 AM 55.4805 -52.3957 248° West 433 498 37,000  Level FlightAware Transoceanic
Thu 11:37:00 AM 55.4352 -52.5924 248° West 433 498 37,000  Level FlightAware Transoceanic
Thu 11:38:00 AM 55.3895 -52.7887 248° West 433 498 37,000  Level FlightAware Transoceanic
Thu 11:39:00 AM 55.3435 -52.9845 247° West 433 498 37,000  Level FlightAware Transoceanic
Thu 11:40:00 AM 55.2971 -53.1799 247° West 433 498 37,000  Level FlightAware Transoceanic
Thu 11:41:00 AM 55.2505 -53.3748 247° West 433 498 37,000  Level FlightAware Transoceanic
Thu 11:42:00 AM 55.2036 -53.5693 247° West 433 498 37,000  Level FlightAware Transoceanic
Thu 11:43:00 AM 55.1563 -53.7633 247° West 433 498 37,000  Level FlightAware Transoceanic
Thu 11:44:00 AM 55.1088 -53.9568 247° West 433 498 37,000  Level FlightAware Transoceanic
Thu 11:45:00 AM 55.0609 -54.1499 247° West 433 498 37,000  Level FlightAware Transoceanic
Thu 11:46:00 AM 55.0128 -54.3425 246° West 433 498 37,000  Level FlightAware Transoceanic
Thu 11:47:00 AM 54.9643 -54.5347 246° West 433 498 37,000  Level FlightAware Transoceanic
Thu 11:48:00 AM 54.9156 -54.7263 246° West 433 498 37,000  Level FlightAware Transoceanic
Thu 11:49:00 AM 54.8665 -54.9176 246° West 433 498 37,000  Level FlightAware Transoceanic
Thu 11:50:00 AM 54.8171 -55.1083 246° West 433 498 37,000  Level FlightAware Transoceanic
Thu 11:51:00 AM 54.7674 -55.2986 246° West 433 498 37,000  Level FlightAware Transoceanic
Thu 11:51:15 AM 54.7833 -55.2167 239° Southwest 440 506 37,000  Level Gander Center
Thu 11:52:00 AM 54.7175 -55.4884 245° Southwest 433 498 37,000  Level FlightAware Transoceanic
Thu 11:52:15 AM 54.7500 -55.4000 253° West 440 506 37,000  Level Gander Center
Thu 11:53:00 AM 54.6672 -55.6778 245° Southwest 433 498 37,000  Level FlightAware Transoceanic
Thu 11:53:15 AM 54.6833 -55.5833 238° Southwest 440 506 37,000  Level Gander Center
Thu 11:54:00 AM 54.6063 -55.8511 239° Southwest  Level Estimated
Thu 11:54:15 AM 54.6333 -55.8000 248° West 440 506 37,000  Level Gander Center
Thu 11:55:00 AM 54.5452 -56.0239 239° Southwest  Level Estimated
Thu 11:55:15 AM 54.5500 -55.9500 226° Southwest 440 506 37,000  Level Gander Center
Thu 11:56:00 AM 54.4837 -56.1963 239° Southwest  Level Estimated
Thu 11:56:15 AM 54.4833 -56.1333 238° Southwest 440 506 37,000  Level Gander Center
Thu 11:57:15 AM 54.4167 -56.3167 238° Southwest 440 506 37,400 571 Climbing Gander Center
Thu 11:58:00 AM 54.3500 -56.4333 226° Southwest 440 506 38,000 343 Climbing Gander Center
Thu 11:59:00 AM 54.3167 -56.6167 253° West 430 495 38,000  Level Gander Center
Thu 12:00:00 PM 54.2500 -56.7833 236° Southwest 430 495 38,000  Level Gander Center
Thu 12:01:00 PM 54.1667 -56.9667 232° Southwest 430 495 38,000  Level Gander Center
Thu 12:02:00 PM 54.1167 -57.1500 245° Southwest 440 506 38,000  Level Gander Center
Thu 12:03:00 PM 54.0500 -57.3167 236° Southwest 440 506 38,000  Level Gander Center
Thu 12:04:00 PM 53.9833 -57.5000 238° Southwest 440 506 38,000  Level Gander Center
Thu 12:05:00 PM 53.9333 -57.6833 245° Southwest 440 506 38,000  Level Gander Center
Thu 12:06:00 PM 53.8667 -57.8500 236° Southwest 440 506 38,000  Level Gander Center
Thu 12:07:00 PM 53.7833 -58.0333 232° Southwest 440 506 38,000  Level Gander Center
Thu 12:08:00 PM 53.7167 -58.2000 236° Southwest 440 506 38,000  Level Gander Center
Thu 12:09:00 PM 53.6667 -58.3833 245° Southwest 440 506 38,000  Level Gander Center
Thu 12:10:00 PM 53.6000 -58.5500 236° Southwest 440 506 38,000  Level Gander Center
Thu 12:11:00 PM 53.5333 -58.7167 236° Southwest 440 506 38,000  Level Gander Center
Thu 12:12:00 PM 53.4500 -58.9000 233° Southwest 440 506 38,000  Level Gander Center
Thu 12:13:00 PM 53.4000 -59.0667 243° Southwest 440 506 38,000  Level Gander Center
Thu 12:14:00 PM 53.3333 -59.2333 236° Southwest 440 506 38,000  Level Gander Center
Thu 12:15:00 PM 53.2667 -59.4167 239° Southwest 440 506 38,000  Level Gander Center
Thu 12:16:00 PM 53.2000 -59.5833 236° Southwest 440 506 38,000  Level Gander Center
Thu 12:17:00 PM 53.1167 -59.7500 230° Southwest 440 506 38,000  Level Gander Center
Thu 12:18:00 PM 53.0500 -59.9167 236° Southwest 430 495 38,000  Level Gander Center
Thu 12:19:00 PM 52.9833 -60.0833 236° Southwest 430 495 38,000  Level Gander Center
Thu 12:20:00 PM 52.9167 -60.2500 236° Southwest 430 495 38,000  Level Gander Center
Thu 12:20:53 PM 52.8667 -60.3833 238° Southwest 430 495 38,000  Level Moncton Center
Thu 12:21:53 PM 52.8000 -60.5500 237° Southwest 430 495 38,000  Level Moncton Center
Thu 12:22:53 PM 52.7333 -60.7167 237° Southwest 430 495 38,000  Level Moncton Center
Thu 12:23:53 PM 52.6667 -60.8667 234° Southwest 430 495 38,000  Level Moncton Center
Thu 12:24:53 PM 52.5833 -61.0333 231° Southwest 430 495 38,000  Level Moncton Center
Thu 12:25:53 PM 52.5333 -61.2000 244° Southwest 430 495 38,000  Level Moncton Center
Thu 12:26:53 PM 52.4667 -61.3833 239° Southwest 430 495 38,000  Level Moncton Center
Thu 12:27:53 PM 52.3833 -61.5167 224° Southwest 430 495 38,000  Level Moncton Center
Thu 12:28:53 PM 52.3167 -61.6833 237° Southwest 430 495 38,000  Level Moncton Center
Thu 12:29:53 PM 52.2667 -61.8500 244° Southwest 430 495 38,000  Level Moncton Center
Thu 12:30:53 PM 52.1833 -62.0167 231° Southwest 430 495 38,000  Level Moncton Center
Thu 12:31:53 PM 52.1167 -62.1667 234° Southwest 430 495 38,000  Level Moncton Center
Thu 12:32:53 PM 52.0500 -62.3333 237° Southwest 430 495 38,000  Level Moncton Center
Thu 12:33:53 PM 51.9667 -62.5000 231° Southwest 430 495 38,000  Level Moncton Center
Thu 12:34:53 PM 51.9000 -62.6333 231° Southwest 430 495 38,000  Level Moncton Center
Thu 12:35:53 PM 51.8333 -62.8000 237° Southwest 430 495 38,000  Level Moncton Center
Thu 12:36:53 PM 51.7667 -62.9333 231° Southwest 430 495 38,000  Level Moncton Center
Thu 12:37:53 PM 51.7000 -63.1000 237° Southwest 420 483 38,000  Level Moncton Center
Thu 12:38:53 PM 51.6333 -63.2667 237° Southwest 420 483 38,000  Level Moncton Center
Thu 12:39:53 PM 51.5667 -63.4000 231° Southwest 430 495 38,000  Level Moncton Center
Thu 12:40:53 PM 51.5000 -63.5667 237° Southwest 430 495 38,000  Level Moncton Center
Thu 12:41:53 PM 51.4167 -63.7333 231° Southwest 430 495 38,000  Level Moncton Center
Thu 12:42:53 PM 51.3500 -63.8667 231° Southwest 430 495 38,000  Level Moncton Center
Thu 12:43:53 PM 51.2667 -64.0167 228° Southwest 430 495 38,000  Level Moncton Center
Thu 12:44:53 PM 51.2000 -64.1833 237° Southwest 430 495 38,000  Level Moncton Center
Thu 12:45:53 PM 51.1333 -64.3500 238° Southwest 430 495 38,000  Level Moncton Center
Thu 12:46:53 PM 51.0500 -64.4833 225° Southwest 430 495 38,000  Level Moncton Center
Thu 12:47:53 PM 50.9833 -64.6333 235° Southwest 430 495 38,000  Level Moncton Center
Thu 12:48:53 PM 50.9167 -64.8000 238° Southwest 430 495 38,000  Level Moncton Center
Thu 12:49:53 PM 50.8333 -64.9333 225° Southwest 430 495 38,000  Level Moncton Center
Thu 12:50:53 PM 50.7667 -65.0833 235° Southwest 430 495 38,000  Level Moncton Center
Thu 12:51:53 PM 50.7000 -65.2500 238° Southwest 430 495 38,000  Level Moncton Center
Thu 12:52:53 PM 50.6000 -65.4000 224° Southwest 430 495 38,000  Level Moncton Center
Thu 12:53:53 PM 50.5333 -65.5333 232° Southwest 430 495 38,000  Level Moncton Center
Thu 12:54:53 PM 50.4500 -65.6833 229° Southwest 430 495 38,000  Level Moncton Center
Thu 12:55:53 PM 50.3833 -65.8333 235° Southwest 430 495 38,000  Level Moncton Center
Thu 12:56:53 PM 50.3167 -66.0000 238° Southwest 430 495 38,000  Level Moncton Center
Thu 12:57:53 PM 50.2333 -66.1167 222° Southwest 430 495 38,000  Level Moncton Center
Thu 12:58:53 PM 50.1667 -66.2833 238° Southwest 430 495 38,000  Level Moncton Center
Thu 12:59:53 PM 50.1000 -66.4333 235° Southwest 430 495 38,000  Level Moncton Center
Thu 01:00:53 PM 50.0167 -66.5667 226° Southwest 430 495 38,000  Level Moncton Center
Thu 01:01:53 PM 49.9333 -66.7167 229° Southwest 430 495 38,000  Level Moncton Center
Thu 01:02:53 PM 49.8667 -66.8667 235° Southwest 430 495 38,000  Level Moncton Center
Thu 01:03:53 PM 49.7833 -66.9833 222° Southwest 430 495 38,000  Level Moncton Center
Thu 01:04:53 PM 49.7167 -67.1500 238° Southwest 430 495 38,000  Level Moncton Center
Thu 01:05:53 PM 49.6333 -67.3000 229° Southwest 430 495 38,000  Level Moncton Center
Thu 01:06:53 PM 49.5500 -67.4500 229° Southwest 430 495 38,000  Level Moncton Center
Thu 01:07:53 PM 49.4833 -67.5667 229° Southwest 430 495 38,000  Level Moncton Center
Thu 01:08:53 PM 49.4167 -67.7167 236° Southwest 430 495 38,000  Level Moncton Center
Thu 01:09:53 PM 49.3167 -67.8333 217° Southwest 430 495 38,000  Level Moncton Center
Thu 01:10:53 PM 49.2500 -67.9833 236° Southwest 430 495 38,000  Level Moncton Center
Thu 01:11:53 PM 49.1667 -68.1333 230° Southwest 430 495 38,000  Level Moncton Center
Thu 01:12:53 PM 49.1000 -68.2667 233° Southwest 430 495 38,000  Level Moncton Center
Thu 01:13:53 PM 49.0000 -68.4000 221° Southwest 430 495 38,000  Level Moncton Center
Thu 01:14:53 PM 48.9167 -68.5333 226° Southwest 430 495 38,000  Level Moncton Center
Thu 01:15:53 PM 48.8333 -68.6500 223° Southwest 430 495 38,000  Level Moncton Center
Thu 01:21:18 PM 48.3270 -69.3160 223° Southwest 432 497 38,000  Level FlightAware ADS-B
Thu 01:21:53 PM 48.2770 -69.3860 223° Southwest 431 496 38,000  Level FlightAware ADS-B
Thu 01:22:38 PM 48.2060 -69.4850 223° Southwest 433 498 38,000  Level FlightAware ADS-B
Thu 01:23:38 PM 48.1210 -69.6030 223° Southwest 434 499 38,000  Level FlightAware ADS-B
Thu 01:24:31 PM 48.0390 -69.7160 223° Southwest 437 503 38,000  Level FlightAware ADS-B
Thu 01:25:43 PM 47.9500 -69.8380 223° Southwest 436 502 38,000  Level FlightAware ADS-B
Thu 01:26:26 PM 47.8700 -69.9470 222° Southwest 436 502 38,000  Level FlightAware ADS-B
Thu 01:27:01 PM 47.8160 -70.0210 223° Southwest 436 502 38,000  Level FlightAware ADS-B
Thu 01:27:43 PM 47.7580 -70.1000 222° Southwest 435 501 38,000  Level FlightAware ADS-B
Thu 01:28:28 PM 47.6900 -70.1930 223° Southwest 435 501 38,000  Level FlightAware ADS-B
Thu 01:29:26 PM 47.6030 -70.3110 222° Southwest 435 501 38,000  Level FlightAware ADS-B
Thu 01:30:06 PM 47.5440 -70.3910 222° Southwest 434 499 38,000  Level FlightAware ADS-B
Thu 01:30:53 PM 47.4760 -70.4820 222° Southwest 433 498 38,000  Level FlightAware ADS-B
Thu 01:31:31 PM 47.4170 -70.5610 222° Southwest 432 497 38,000  Level FlightAware ADS-B
Thu 01:32:11 PM 47.3590 -70.6390 222° Southwest 433 498 38,000  Level FlightAware ADS-B
Thu 01:32:56 PM 47.2920 -70.7270 222° Southwest 434 499 38,000  Level FlightAware ADS-B
Thu 01:33:36 PM 47.2320 -70.8070 222° Southwest 436 502 38,000  Level FlightAware ADS-B
Thu 01:34:21 PM 47.1670 -70.8940 222° Southwest 437 503 38,000  Level FlightAware ADS-B
Thu 01:35:01 PM 47.1060 -70.9730 221° Southwest 439 505 38,000  Level FlightAware ADS-B
Thu 01:35:47 PM 47.0730 -71.0160 222° Southwest 439 505 38,000  Level FlightAware ADS-B
Thu 01:36:28 PM 46.9810 -71.1380 222° Southwest 441 507 38,000  Level FlightAware ADS-B
Thu 01:37:08 PM 46.9150 -71.2250 222° Southwest 441 507 38,000  Level FlightAware ADS-B
Thu 01:37:48 PM 46.8550 -71.3030 222° Southwest 440 506 38,000  Level FlightAware ADS-B
Thu 01:38:33 PM 46.7850 -71.3930 221° Southwest 439 505 38,000 -444 Level FlightAware ADS-B
Thu 01:39:09 PM 46.7320 -71.4620 222° Southwest 439 505 37,400 -1,125 Descending FlightAware ADS-B
Thu 01:39:53 PM 46.6660 -71.5460 221° Southwest 440 506 36,500 -1,217 Descending FlightAware ADS-B
Thu 01:40:18 PM 46.6280 -71.5960 222° Southwest 442 509 36,000 -1,040 Descending FlightAware ADS-B
Thu 01:41:08 PM 46.5510 -71.6950 221° Southwest 437 503 35,200 -1,000 Descending FlightAware ADS-B
Thu 01:41:48 PM 46.4890 -71.7760 222° Southwest 436 502 34,500 -1,063 Descending FlightAware ADS-B
Thu 01:42:27 PM 46.4320 -71.8510 222° Southwest 437 503 33,800 -1,977 Descending FlightAware ADS-B
Thu 01:43:16 PM 46.3580 -71.9480 222° Southwest 436 502 31,600 -2,581 Descending FlightAware ADS-B
Thu 01:43:53 PM 46.3160 -72.0040 223° Southwest 438 504 30,100 -2,643 Descending FlightAware ADS-B
Thu 01:44:40 PM 46.2330 -72.1110 222° Southwest 420 483 27,900 -2,582 Descending FlightAware ADS-B
Thu 01:45:12 PM 46.1880 -72.1700 222° Southwest 414 476 26,700 -1,429 Descending FlightAware ADS-B
Thu 01:46:04 PM 46.1160 -72.2610 221° Southwest 383 441 25,900 -1,267 Descending FlightAware ADS-B
Thu 01:46:42 PM 46.0670 -72.3250 222° Southwest 376 433 24,800 -1,952 Descending FlightAware ADS-B
Thu 01:47:27 PM 46.0080 -72.3990 221° Southwest 370 426 23,200 -2,571 Descending FlightAware ADS-B
Thu 01:48:06 PM 45.9580 -72.4630 222° Southwest 359 413 21,200 -2,602 Descending FlightAware ADS-B
Thu 01:48:50 PM 45.9070 -72.5290 222° Southwest 325 374 19,600 -2,049 Descending FlightAware ADS-B
Thu 01:49:28 PM 45.8650 -72.5810 221° Southwest 298 343 18,400 -2,049 Descending FlightAware ADS-B
Thu 01:50:12 PM 45.8220 -72.6370 222° Southwest 295 339 16,800 -1,904 Descending FlightAware ADS-B
Thu 01:51:12 PM 45.7660 -72.7090 222° Southwest 296 341 15,100 -1,800 Descending FlightAware ADS-B
Thu 01:51:52 PM 45.7200 -72.7690 222° Southwest 287 330 13,800 -1,962 Descending FlightAware ADS-B
Thu 01:52:04 PM 45.7110 -72.7890 237° Southwest 281 323 13,400 -1,846 Descending FlightAware ADS-B
Thu 01:52:18 PM 45.7060 -72.8140 254° West 276 318 13,000 -1,821 Descending FlightAware ADS-B
Thu 01:53:00 PM 45.6980 -72.8870 261° West 267 307 11,700 -2,000 Descending FlightAware ADS-B
Thu 01:53:42 PM 45.6920 -72.9630 264° West 269 310 10,200 -1,886 Descending FlightAware ADS-B
Thu 01:54:10 PM 45.6880 -73.0100 263° West 270 311 9,500 -1,345 Descending FlightAware ADS-B
Thu 01:54:40 PM 45.6830 -73.0640 262° West 265 305 8,900 -1,345 Descending FlightAware ADS-B
Thu 01:55:08 PM 45.6780 -73.1130 262° West 264 304 8,200 -1,448 Descending FlightAware ADS-B
Thu 01:55:38 PM 45.6710 -73.1640 259° West 260 299 7,500 -1,286 Descending FlightAware ADS-B
Thu 01:56:04 PM 45.6630 -73.2060 255° West 261 300 7,000 -882 Descending FlightAware ADS-B
Thu 01:56:46 PM 45.6520 -73.2770 258° West 263 303 6,500 -771 Descending FlightAware ADS-B
Thu 01:57:14 PM 45.6440 -73.3250 257° West 262 302 6,100 -1,000 Descending FlightAware ADS-B
Thu 01:57:40 PM 45.6370 -73.3690 257° West 257 296 5,600 -977 Descending FlightAware ADS-B
Thu 01:57:57 PM 45.6330 -73.3950 258° West 255 293 5,400 -913 Descending FlightAware ADS-B
Thu 01:58:26 PM 45.6260 -73.4410 258° West 253 291 4,900 -1,158 Descending FlightAware ADS-B
Thu 01:58:54 PM 45.6170 -73.4910 256° West 253 291 4,300 -1,269 Descending FlightAware ADS-B
Thu 01:59:18 PM 45.6110 -73.5280 257° West 247 284 3,800 -1,200 Descending FlightAware ADS-B
Thu 01:59:34 PM 45.6050 -73.5520 250° West 234 269 3,500 -955 Descending FlightAware ADS-B
Thu 02:00:02 PM 45.5860 -73.5840 230° Southwest 217 250 3,100 -750 Descending FlightAware ADS-B
Thu 02:00:14 PM 45.5780 -73.5950 224° Southwest 207 238 3,000 -643 Descending FlightAware ADS-B
Thu 02:00:58 PM 45.5500 -73.6320 223° Southwest 177 204 2,500 -783 Descending FlightAware ADS-B
Thu 02:01:23 PM 45.5360 -73.6520 225° Southwest 159 183 2,100 -840 Descending FlightAware ADS-B
Thu 02:01:48 PM 45.5220 -73.6700 222° Southwest 155 178 1,800 -873 Descending FlightAware ADS-B
Thu 02:02:18 PM 45.5060 -73.6920 224° Southwest 157 181 1,300 -840 Descending FlightAware ADS-B
Thu 02:02:38 PM 45.4960 -73.7060 224° Southwest 145 167 1,100 -750 Descending FlightAware ADS-B
Thu 02:02:58 PM 45.4870 -73.7180 223° Southwest 140 161 800 -720 Descending FlightAware ADS-B
Thu 02:03:28 PM 45.4730 -73.7360 222° Southwest 138 159 500 -689 Descending FlightAware ADS-B
Thu 02:03:59 PM 45.4580 -73.7570 224° Southwest 138 159 100 -774 Descending FlightAware ADS-B
Thu 02:04:23 PM 45.4470 -73.7710 222° Southwest 132 152 -250 Descending FlightAware ADS-B
Thu 02:04:53 PM 45.4390 -73.7830 226° Southwest 40 46  Level FlightAware ADS-B
Thu 02:05:08 PM 45.4370 -73.7850 215° Southwest 27 31  Level FlightAware ADS-B
Thu 02:05:25 PM 45.4350 -73.7860 199° South 28 32  Level FlightAware ADS-B
Thu 02:05:53 PM 45.4320 -73.7870 193° South 21 24  Level FlightAware ADS-B
Thu 02:06:28 PM 45.4300 -73.7850 145° Southeast 13 15  Level FlightAware ADS-B
Thu 02:07:24 PM 45.4300 -73.7820 90° East 2 2  Level FlightAware ADS-B

Login

Don't have an account? Register now (free) for customized features, flight alerts, and more!